Terminal Aerodrome Forecast
Issued by NWS Sterling, VA

Home | Current Version | Previous Version | Text Only | Print | Product List | Glossary On
Versions: 1 2 3 4 5 6 7 8 9 10 11 12 13
000
FTUS41 KLWX 291728
TAFCHO
TAF
KCHO 291728Z 2918/3018 18006KT P6SM SCT080
     FM300000 18004KT P6SM VCSH SCT050 BKN090
     FM300100 VRB03KT P6SM SCT090
     FM300900 VRB03KT 5SM BR SCT070
     FM301200 00000KT P6SM SCT070=

USA.gov is the U.S. government's official web portal to all federal, state and local government web resources and services.